Terminal Aerodrome Forecast
Issued by NWS Wilmington, OH

Current Version | Previous Version | Text Only | Print | Product List | Glossary Off
Versions: 1 2 3 4 5 6 7 8 9 10 11 12 13 14 15 16 17 18 19 20 21 22 23

000
FTUS41 KILN 290500
TAFCVG
TAF
KCVG 290530Z 2906/3012 26005KT P6SM BKN120
     FM291200 26007KT P6SM SKC
     FM291600 28012G18KT P6SM SCT040
     FM292200 30008KT P6SM SCT040
     FM300400 36004KT P6SM SKC=

USA.gov is the U.S. government's official web portal to all federal, state and local government web resources and services.